createdAt,value
2022-07-29T00:00:04.982Z,99279.81
2022-07-29T00:00:17.358Z,99281.50
2022-07-29T00:00:29.374Z,99277.16
2022-07-29T00:00:41.511Z,99277.91
2022-07-29T00:00:53.567Z,99276.91
2022-07-29T00:01:05.491Z,99278.72
2022-07-29T00:01:19.101Z,99275.09
2022-07-29T00:01:31.691Z,99284.03
2022-07-29T00:01:44.252Z,99274.25
2022-07-29T00:01:56.220Z,99283.91
2022-07-29T00:02:08.171Z,99281.25
2022-07-29T00:02:20.140Z,99279.56
2022-07-29T00:02:33.072Z,99288.50
2022-07-29T00:02:45.141Z,99278.72
2022-07-29T00:02:57.194Z,99279.56
2022-07-29T00:03:09.202Z,99274.25
2022-07-29T00:03:21.274Z,99278.72
2022-07-29T00:03:33.386Z,99273.28
2022-07-29T00:03:45.469Z,99275.94
2022-07-29T00:03:57.439Z,99276.63
2022-07-29T00:04:09.498Z,99277.59
2022-07-29T00:04:21.998Z,99279.56
2022-07-29T00:04:37.349Z,99275.94
2022-07-29T00:04:49.394Z,99278.44
2022-07-29T00:05:02.820Z,99278.44
2022-07-29T00:05:14.785Z,99272.28
2022-07-29T00:05:26.749Z,99274.94
2022-07-29T00:05:42.492Z,99277.59
2022-07-29T00:05:54.433Z,99279.44
2022-07-29T00:06:06.571Z,99275.94
2022-07-29T00:06:18.569Z,99274.25
2022-07-29T00:06:30.518Z,99275.94
2022-07-29T00:06:42.582Z,99274.25
2022-07-29T00:06:54.615Z,99278.72
2022-07-29T00:07:06.647Z,99277.91
2022-07-29T00:07:18.744Z,99269.22
2022-07-29T00:07:30.754Z,99269.50
2022-07-29T00:07:42.689Z,99275.66
2022-07-29T00:07:54.908Z,99273.44
2022-07-29T00:08:12.223Z,99276.78
2022-07-29T00:08:24.677Z,99272.44
2022-07-29T00:08:37.327Z,99273.44
2022-07-29T00:08:49.259Z,99284.16
2022-07-29T00:09:01.269Z,99271.75
2022-07-29T00:09:13.358Z,99270.09
2022-07-29T00:09:25.299Z,99275.38
2022-07-29T00:09:41.874Z,99274.56
2022-07-29T00:10:04.657Z,99275.66
2022-07-29T00:10:16.646Z,99273.69
2022-07-29T00:10:28.607Z,99275.38
2022-07-29T00:10:40.621Z,99273.69
2022-07-29T00:10:52.613Z,99268.38
2022-07-29T00:11:05.332Z,99272.31
2022-07-29T00:11:17.373Z,99273.16
2022-07-29T00:11:29.404Z,99271.47
2022-07-29T00:11:41.416Z,99269.81
2022-07-29T00:11:54.663Z,99267.00
2022-07-29T00:12:06.746Z,99269.66
2022-07-29T00:12:26.387Z,99270.66
2022-07-29T00:12:38.876Z,99272.31
2022-07-29T00:12:50.891Z,99264.66
2022-07-29T00:13:02.996Z,99268.00
2022-07-29T00:13:15.161Z,99270.78
2022-07-29T00:13:32.440Z,99266.47
2022-07-29T00:13:50.551Z,99270.09
2022-07-29T00:14:03.121Z,99263.94
2022-07-29T00:14:15.337Z,99272.59
2022-07-29T00:14:28.159Z,99267.28
2022-07-29T00:14:40.249Z,99262.94
2022-07-29T00:14:52.977Z,99263.94
2022-07-29T00:15:05.539Z,99258.66
2022-07-29T00:15:17.500Z,99263.13
2022-07-29T00:15:29.592Z,99262.00
2022-07-29T00:15:41.744Z,99263.94
2022-07-29T00:15:53.717Z,99256.97
2022-07-29T00:16:05.849Z,99261.28
2022-07-29T00:16:17.958Z,99257.66
2022-07-29T00:16:30.169Z,99258.50
2022-07-29T00:16:42.166Z,99265.34
2022-07-29T00:16:54.463Z,99257.53
2022-07-29T00:17:06.661Z,99260.31
2022-07-29T00:17:19.065Z,99258.66
2022-07-29T00:17:31.193Z,99260.59
2022-07-29T00:17:43.180Z,99262.56
2022-07-29T00:17:55.317Z,99256.41
2022-07-29T00:18:07.278Z,99252.91
2022-07-29T00:18:19.237Z,99257.53
2022-07-29T00:18:31.180Z,99257.53
2022-07-29T00:18:43.136Z,99259.22
2022-07-29T00:18:55.103Z,99262.00
2022-07-29T00:19:07.918Z,99262.81
2022-07-29T00:19:20.052Z,99255.16
2022-07-29T00:19:33.203Z,99259.47
2022-07-29T00:19:45.740Z,99254.16
2022-07-29T00:19:58.039Z,99248.03
2022-07-29T00:20:10.869Z,99255.28
2022-07-29T00:20:22.870Z,99251.94
2022-07-29T00:20:34.853Z,99252.78
2022-07-29T00:20:46.815Z,99250.38
2022-07-29T00:20:58.748Z,99255.00
2022-07-29T00:21:10.959Z,99249.94
2022-07-29T00:21:22.904Z,99250.66
2022-07-29T00:21:34.843Z,99255.00
2022-07-29T00:21:46.837Z,99248.28
2022-07-29T00:21:58.778Z,99243.00
2022-07-29T00:22:22.970Z,99250.25
2022-07-29T00:22:39.025Z,99248.28
2022-07-29T00:22:51.091Z,99251.91
2022-07-29T00:23:03.054Z,99248.28
2022-07-29T00:23:26.890Z,99240.19
2022-07-29T00:23:38.868Z,99244.66
2022-07-29T00:23:50.821Z,99249.00
2022-07-29T00:24:02.859Z,99247.31
2022-07-29T00:24:15.846Z,99251.66
2022-07-29T00:24:28.025Z,99244.66
2022-07-29T00:24:39.959Z,99249.25
2022-07-29T00:24:51.974Z,99245.91
2022-07-29T00:25:04.216Z,99243.25
2022-07-29T00:25:16.153Z,99259.16
2022-07-29T00:25:28.166Z,99251.50
2022-07-29T00:25:40.227Z,99252.34
2022-07-29T00:25:52.223Z,99250.66
2022-07-29T00:26:04.270Z,99248.84
2022-07-29T00:26:16.201Z,99243.56
2022-07-29T00:26:32.441Z,99245.22
2022-07-29T00:26:44.422Z,99249.13
2022-07-29T00:26:56.379Z,99248.84
2022-07-29T00:27:08.378Z,99248.84
2022-07-29T00:27:20.307Z,99252.72
2022-07-29T00:27:32.264Z,99245.19
2022-07-29T00:27:44.420Z,99244.63
2022-07-29T00:27:56.396Z,99252.75
2022-07-29T00:28:08.347Z,99250.22
2022-07-29T00:28:20.281Z,99253.56
2022-07-29T00:28:32.360Z,99252.88
2022-07-29T00:28:44.302Z,99251.88
2022-07-29T00:29:30.840Z,99249.41
2022-07-29T00:29:35.622Z,99258.31
2022-07-29T00:29:47.673Z,99252.31
2022-07-29T00:29:59.636Z,99254.81
2022-07-29T00:30:11.838Z,99257.47
2022-07-29T00:30:24.139Z,99250.47
2022-07-29T00:30:36.089Z,99254.13
2022-07-29T00:30:48.042Z,99257.72
2022-07-29T00:31:00.536Z,99258.59
2022-07-29T00:31:13.099Z,99259.41
2022-07-29T00:31:25.140Z,99260.53
2022-07-29T00:31:37.241Z,99258.84
2022-07-29T00:31:49.379Z,99261.38
2022-07-29T00:32:01.600Z,99252.72
2022-07-29T00:32:13.667Z,99255.25
2022-07-29T00:32:25.592Z,99255.25
2022-07-29T00:32:37.536Z,99254.38
2022-07-29T00:32:49.544Z,99257.19
2022-07-29T00:33:01.535Z,99258.03
2022-07-29T00:33:13.458Z,99256.31
2022-07-29T00:33:25.704Z,99259.97
2022-07-29T00:33:37.685Z,99255.50
2022-07-29T00:33:49.616Z,99253.97
2022-07-29T00:34:01.583Z,99254.09
2022-07-29T00:34:31.772Z,99253.97
2022-07-29T00:35:02.615Z,99254.66
2022-07-29T00:35:32.928Z,99256.63
2022-07-29T00:35:45.599Z,99251.56
2022-07-29T00:35:57.573Z,99253.28
2022-07-29T00:36:09.509Z,99255.22
2022-07-29T00:36:24.464Z,99252.69
2022-07-29T00:36:36.389Z,99255.06
2022-07-29T00:36:48.361Z,99256.19
2022-07-29T00:37:00.299Z,99257.16
2022-07-29T00:37:12.280Z,99255.47
2022-07-29T00:37:24.507Z,99257.16
2022-07-29T00:37:36.536Z,99255.47
2022-07-29T00:37:48.700Z,99259.13
2022-07-29T00:38:00.704Z,99255.47
2022-07-29T00:38:19.517Z,99258.81
2022-07-29T00:38:31.657Z,99257.16
2022-07-29T00:38:46.099Z,99258.00
2022-07-29T00:38:58.029Z,99260.53
2022-07-29T00:39:09.941Z,99257.00
2022-07-29T00:39:22.102Z,99257.88
2022-07-29T00:39:34.213Z,99256.88
2022-07-29T00:39:46.273Z,99262.19
2022-07-29T00:39:58.306Z,99255.91
2022-07-29T00:40:10.973Z,99259.53
2022-07-29T00:40:23.644Z,99258.56
2022-07-29T00:40:35.848Z,99264.00
2022-07-29T00:40:48.496Z,99252.56
2022-07-29T00:41:00.475Z,99256.88
2022-07-29T00:41:13.403Z,99252.56
2022-07-29T00:41:25.348Z,99262.19
2022-07-29T00:41:37.275Z,99259.41
2022-07-29T00:41:49.641Z,99254.94
2022-07-29T00:42:04.771Z,99256.63
2022-07-29T00:42:17.543Z,99258.28
2022-07-29T00:42:29.542Z,99259.13
2022-07-29T00:42:44.388Z,99265.25
2022-07-29T00:42:56.408Z,99259.13
2022-07-29T00:43:08.681Z,99261.91
2022-07-29T00:43:20.635Z,99258.28
2022-07-29T00:43:32.597Z,99253.97
2022-07-29T00:43:45.487Z,99256.31
2022-07-29T00:43:57.420Z,99261.63
2022-07-29T00:44:09.342Z,99259.97
2022-07-29T00:44:21.849Z,99256.63
2022-07-29T00:44:41.391Z,99259.13
2022-07-29T00:44:53.328Z,99256.88
2022-07-29T00:45:05.784Z,99262.75
2022-07-29T00:45:18.510Z,99259.28
2022-07-29T00:45:31.012Z,99258.28
2022-07-29T00:45:43.288Z,99254.66
2022-07-29T00:45:55.205Z,99255.50
2022-07-29T00:46:07.646Z,99258.03
2022-07-29T00:46:19.569Z,99250.19
2022-07-29T00:46:31.583Z,99256.31
2022-07-29T00:46:43.614Z,99259.97
2022-07-29T00:46:55.639Z,99254.66
2022-07-29T00:47:09.037Z,99252.84
2022-07-29T00:47:21.083Z,99251.31
2022-07-29T00:47:33.021Z,99248.66
2022-07-29T00:47:45.294Z,99248.53
2022-07-29T00:47:57.379Z,99258.03
2022-07-29T00:48:09.804Z,99244.78
2022-07-29T00:48:21.740Z,99251.72
2022-07-29T00:48:33.684Z,99255.38
2022-07-29T00:48:45.911Z,99251.03
2022-07-29T00:48:58.374Z,99254.53
2022-07-29T00:49:10.571Z,99252.97
2022-07-29T00:49:22.616Z,99254.66
2022-07-29T00:49:35.298Z,99250.31
2022-07-29T00:49:47.678Z,99252.81
2022-07-29T00:49:59.648Z,99252.00
2022-07-29T00:50:13.602Z,99255.47
2022-07-29T00:50:26.373Z,99250.19
2022-07-29T00:50:38.907Z,99253.81
2022-07-29T00:50:51.874Z,99253.53
2022-07-29T00:51:05.089Z,99249.06
2022-07-29T00:51:17.373Z,99248.94
2022-07-29T00:51:29.770Z,99256.88
2022-07-29T00:51:41.859Z,99244.34
2022-07-29T00:51:54.344Z,99252.97
2022-07-29T00:52:07.958Z,99257.31
2022-07-29T00:52:19.891Z,99251.03
2022-07-29T00:52:32.086Z,99246.59
2022-07-29T00:52:44.706Z,99252.97
2022-07-29T00:52:56.773Z,99249.38
2022-07-29T00:53:09.192Z,99254.66
2022-07-29T00:53:21.738Z,99247.41
2022-07-29T00:53:34.987Z,99256.06
2022-07-29T00:53:50.808Z,99250.78
2022-07-29T00:54:03.757Z,99246.44
2022-07-29T00:54:16.250Z,99258.03
2022-07-29T00:54:28.752Z,99253.56
2022-07-29T00:54:44.092Z,99251.72
2022-07-29T00:54:57.369Z,99251.03
2022-07-29T00:55:11.797Z,99254.38
2022-07-29T00:55:23.850Z,99251.03
2022-07-29T00:55:36.320Z,99246.59
2022-07-29T00:55:48.411Z,99253.56
2022-07-29T00:56:00.783Z,99248.25
2022-07-29T00:56:12.849Z,99255.25
2022-07-29T00:56:24.813Z,99251.72
2022-07-29T00:56:37.285Z,99253.41
2022-07-29T00:56:50.050Z,99254.38
2022-07-29T00:57:02.520Z,99244.06
2022-07-29T00:57:14.661Z,99253.69
2022-07-29T00:57:26.692Z,99249.25
2022-07-29T00:57:39.775Z,99247.41
2022-07-29T00:57:53.200Z,99252.72
2022-07-29T00:58:05.811Z,99250.78
2022-07-29T00:58:17.881Z,99251.59
2022-07-29T00:58:29.841Z,99250.78
2022-07-29T00:58:42.135Z,99245.47
2022-07-29T00:58:56.231Z,99251.91
2022-07-29T00:59:08.165Z,99246.59
2022-07-29T00:59:20.717Z,99245.72
2022-07-29T00:59:34.906Z,99244.06
2022-07-29T00:59:47.402Z,99245.72
2022-07-29T00:59:59.354Z,99245.03
2022-07-29T01:00:20.729Z,99246.03
2022-07-29T01:00:32.790Z,99243.50
2022-07-29T01:00:45.579Z,99246.84
2022-07-29T01:00:58.859Z,99242.69
2022-07-29T01:01:10.878Z,99248.22
2022-07-29T01:01:22.846Z,99247.28
2022-07-29T01:01:34.819Z,99242.81
2022-07-29T01:01:46.833Z,99243.50
2022-07-29T01:01:58.859Z,99237.38
2022-07-29T01:02:11.072Z,99239.16
2022-07-29T01:02:23.201Z,99236.53
2022-07-29T01:02:35.230Z,99238.91
2022-07-29T01:02:49.238Z,99237.94
2022-07-29T01:03:01.486Z,99235.31
2022-07-29T01:03:13.957Z,99241.28
2022-07-29T01:03:26.022Z,99234.06
2022-07-29T01:03:37.961Z,99240.19
2022-07-29T01:03:50.074Z,99240.19
2022-07-29T01:04:02.548Z,99240.19
2022-07-29T01:04:14.712Z,99233.06
2022-07-29T01:04:28.657Z,99236.53
2022-07-29T01:04:41.861Z,99236.53
2022-07-29T01:04:54.532Z,99240.88
2022-07-29T01:05:07.810Z,99239.88
2022-07-29T01:05:22.747Z,99232.94
2022-07-29T01:05:50.939Z,99239.88
2022-07-29T01:06:03.804Z,99235.28
2022-07-29T01:06:17.947Z,99238.78
2022-07-29T01:06:30.604Z,99232.63
2022-07-29T01:06:43.555Z,99230.16
2022-07-29T01:06:55.751Z,99234.59
2022-07-29T01:07:08.496Z,99238.22
2022-07-29T01:07:20.819Z,99239.88
2022-07-29T01:07:37.797Z,99235.56
2022-07-29T01:07:53.414Z,99234.88
2022-07-29T01:08:06.223Z,99232.50
2022-07-29T01:08:19.225Z,99239.34
2022-07-29T01:08:33.540Z,99237.66
2022-07-29T01:08:49.558Z,99229.56
2022-07-29T01:09:02.289Z,99232.22
2022-07-29T01:09:15.351Z,99237.41
2022-07-29T01:09:35.029Z,99234.88
2022-07-29T01:09:59.009Z,99233.75
2022-07-29T01:10:14.047Z,99229.28
2022-07-29T01:10:27.153Z,99235.44
2022-07-29T01:10:41.803Z,99231.81
2022-07-29T01:10:54.995Z,99233.50
2022-07-29T01:11:08.289Z,99236.97
2022-07-29T01:11:20.994Z,99229.16
2022-07-29T01:11:34.869Z,99237.94
2022-07-29T01:11:48.634Z,99234.31
2022-07-29T01:12:01.250Z,99229.03
2022-07-29T01:12:23.925Z,99235.16
2022-07-29T01:12:37.762Z,99234.03
2022-07-29T01:12:51.750Z,99239.34
2022-07-29T01:13:05.779Z,99233.06
2022-07-29T01:13:21.653Z,99238.25
2022-07-29T01:13:34.244Z,99238.06
2022-07-29T01:13:48.037Z,99245.06
2022-07-29T01:14:01.192Z,99236.28
2022-07-29T01:14:13.856Z,99237.13
2022-07-29T01:14:27.191Z,99240.72
2022-07-29T01:14:41.403Z,99239.06
2022-07-29T01:14:55.718Z,99235.72
2022-07-29T01:15:09.197Z,99241.28
2022-07-29T01:15:23.999Z,99241.28
2022-07-29T01:15:49.222Z,99237.94
2022-07-29T01:16:11.042Z,99242.41
2022-07-29T01:16:41.278Z,99239.63
2022-07-29T01:17:24.220Z,99237.69
2022-07-29T01:18:00.657Z,99241.72
2022-07-29T01:18:42.039Z,99244.91
2022-07-29T01:19:07.113Z,99230.41
2022-07-29T01:19:40.517Z,99234.91
2022-07-29T01:20:02.145Z,99237.38
2022-07-29T01:20:38.082Z,99233.47
2022-07-29T01:21:24.133Z,99237.81
2022-07-29T01:21:56.190Z,99235.16
2022-07-29T01:22:49.782Z,99229.88
2022-07-29T01:23:07.952Z,99242.13
2022-07-29T01:23:37.810Z,99237.00
2022-07-29T01:24:11.602Z,99236.81
2022-07-29T01:24:40.679Z,99240.72
2022-07-29T01:25:10.643Z,99231.81
2022-07-29T01:25:37.563Z,99241.28
2022-07-29T01:26:05.023Z,99235.16
2022-07-29T01:26:47.349Z,99228.19
2022-07-29T01:27:18.178Z,99234.34
2022-07-29T01:28:08.509Z,99235.44
2022-07-29T01:28:42.083Z,99231.81
2022-07-29T01:29:13.008Z,99233.47
2022-07-29T01:29:36.126Z,99230.81
2022-07-29T01:29:58.252Z,99234.34
2022-07-29T01:30:11.061Z,99238.78
2022-07-29T01:30:28.020Z,99234.47
2022-07-29T01:30:45.414Z,99230.13
2022-07-29T01:30:57.925Z,99230.13
2022-07-29T01:31:12.426Z,99240.03
2022-07-29T01:32:00.568Z,99238.38
2022-07-29T01:32:27.840Z,99235.59
2022-07-29T01:32:42.021Z,99234.59
2022-07-29T01:32:59.936Z,99231.13
2022-07-29T01:33:36.225Z,99234.59
2022-07-29T01:33:55.939Z,99224.84
2022-07-29T01:34:11.998Z,99230.00
2022-07-29T01:34:36.075Z,99229.16
2022-07-29T01:35:03.094Z,99224.69
2022-07-29T01:35:32.251Z,99231.53
2022-07-29T01:35:45.992Z,99239.63
2022-07-29T01:36:00.202Z,99235.88
2022-07-29T01:36:16.119Z,99233.22
2022-07-29T01:36:56.423Z,99236.28
2022-07-29T01:37:14.254Z,99235.44
2022-07-29T01:38:13.521Z,99231.25
2022-07-29T01:38:28.769Z,99232.09
2022-07-29T01:38:43.652Z,99226.78
2022-07-29T01:39:04.197Z,99235.72
2022-07-29T01:39:33.398Z,99230.41
2022-07-29T01:39:48.542Z,99235.72
2022-07-29T01:40:03.184Z,99226.78
2022-07-29T01:40:21.495Z,99237.69
2022-07-29T01:40:54.135Z,99232.63
2022-07-29T01:41:15.501Z,99232.63
2022-07-29T01:41:32.395Z,99225.69
2022-07-29T01:42:13.556Z,99231.94
2022-07-29T01:42:43.895Z,99230.97
2022-07-29T01:42:59.078Z,99234.59
2022-07-29T01:43:14.092Z,99236.28
2022-07-29T01:43:35.131Z,99233.50
2022-07-29T01:43:58.231Z,99234.31
2022-07-29T01:44:19.723Z,99232.63
2022-07-29T01:44:40.999Z,99226.50
2022-07-29T01:45:17.286Z,99226.50
2022-07-29T01:45:41.242Z,99226.38
2022-07-29T01:46:06.833Z,99233.34
2022-07-29T01:46:26.269Z,99230.97
2022-07-29T01:46:42.648Z,99227.34
2022-07-29T01:46:59.745Z,99236.84
2022-07-29T01:47:15.157Z,99230.69
2022-07-29T01:47:43.208Z,99233.34
2022-07-29T01:48:05.906Z,99235.28
2022-07-29T01:48:24.134Z,99222.03
2022-07-29T01:48:40.090Z,99231.53
2022-07-29T01:48:58.838Z,99229.03
2022-07-29T01:49:21.492Z,99223.72
2022-07-29T01:49:37.729Z,99228.91
2022-07-29T01:49:55.600Z,99228.03
2022-07-29T01:50:12.707Z,99227.06
2022-07-29T01:50:31.159Z,99232.38
2022-07-29T01:50:59.430Z,99224.44
2022-07-29T01:51:27.242Z,99228.72
2022-07-29T01:52:00.728Z,99230.69
2022-07-29T01:52:20.943Z,99227.34
2022-07-29T01:52:38.759Z,99235.56
2022-07-29T01:53:04.881Z,99235.84
2022-07-29T01:53:39.869Z,99233.88
2022-07-29T01:53:58.837Z,99222.59
2022-07-29T01:54:20.844Z,99232.34
2022-07-29T01:54:40.628Z,99238.22
2022-07-29T01:54:58.157Z,99234.88
2022-07-29T01:55:15.780Z,99228.59
2022-07-29T01:55:33.010Z,99233.19
2022-07-29T01:55:46.913Z,99232.09
2022-07-29T01:56:02.856Z,99227.63
2022-07-29T01:56:17.872Z,99233.75
2022-07-29T01:56:34.601Z,99234.59
2022-07-29T01:56:50.696Z,99236.28
2022-07-29T01:57:05.641Z,99240.75
2022-07-29T01:57:20.777Z,99240.44
2022-07-29T01:57:36.798Z,99237.94
2022-07-29T01:57:49.860Z,99241.28
2022-07-29T01:58:06.259Z,99240.44
2022-07-29T01:58:20.017Z,99239.63
2022-07-29T01:58:34.094Z,99238.94
2022-07-29T01:58:48.190Z,99235.44
2022-07-29T01:59:03.933Z,99238.94
2022-07-29T01:59:18.574Z,99239.88
2022-07-29T01:59:32.207Z,99238.22
2022-07-29T01:59:46.046Z,99240.03
2022-07-29T02:00:01.095Z,99241.84
2022-07-29T02:00:13.947Z,99238.22
2022-07-29T02:00:27.338Z,99235.56
2022-07-29T02:00:43.790Z,99241.56
2022-07-29T02:00:58.243Z,99245.19
2022-07-29T02:01:12.555Z,99243.22
2022-07-29T02:01:26.007Z,99240.59
2022-07-29T02:01:41.705Z,99239.88
2022-07-29T02:01:55.359Z,99240.75
2022-07-29T02:02:10.691Z,99239.88
2022-07-29T02:02:24.140Z,99245.19
2022-07-29T02:02:40.021Z,99239.19
2022-07-29T02:02:55.022Z,99243.22
2022-07-29T02:03:11.979Z,99235.44
2022-07-29T02:03:25.144Z,99238.94
2022-07-29T02:03:39.897Z,99237.09
2022-07-29T02:03:55.173Z,99232.94
2022-07-29T02:04:10.818Z,99239.06
2022-07-29T02:04:28.933Z,99240.88
2022-07-29T02:04:43.959Z,99234.59
2022-07-29T02:04:58.067Z,99235.44
2022-07-29T02:05:13.728Z,99240.75
2022-07-29T02:05:28.355Z,99237.94
2022-07-29T02:05:43.254Z,99243.22
2022-07-29T02:05:57.587Z,99227.34
2022-07-29T02:06:12.053Z,99239.88
2022-07-29T02:06:25.113Z,99232.63
2022-07-29T02:06:39.221Z,99232.63
2022-07-29T02:06:54.153Z,99228.31
2022-07-29T02:07:08.006Z,99231.69
2022-07-29T02:07:22.873Z,99227.34
2022-07-29T02:07:35.991Z,99233.50
2022-07-29T02:07:50.448Z,99235.56
2022-07-29T02:08:04.419Z,99229.56
2022-07-29T02:08:19.330Z,99234.59
2022-07-29T02:08:34.055Z,99229.28
2022-07-29T02:08:47.944Z,99232.22
2022-07-29T02:09:02.026Z,99227.63
2022-07-29T02:09:16.396Z,99232.94
2022-07-29T02:09:29.876Z,99233.88
2022-07-29T02:09:43.365Z,99231.25
2022-07-29T02:09:57.779Z,99226.63
2022-07-29T02:10:11.642Z,99225.69
2022-07-29T02:10:30.457Z,99228.47
2022-07-29T02:10:43.980Z,99235.56
2022-07-29T02:10:57.120Z,99229.28
2022-07-29T02:11:09.572Z,99225.69
2022-07-29T02:11:21.633Z,99232.94
2022-07-29T02:11:36.413Z,99230.16
2022-07-29T02:11:54.858Z,99230.16
2022-07-29T02:12:08.404Z,99228.31
2022-07-29T02:12:22.253Z,99234.59
2022-07-29T02:12:36.499Z,99228.59
2022-07-29T02:12:50.828Z,99227.63
2022-07-29T02:13:04.912Z,99231.25
2022-07-29T02:13:18.931Z,99227.63
2022-07-29T02:13:32.373Z,99224.97
2022-07-29T02:13:46.308Z,99229.28
2022-07-29T02:13:59.737Z,99229.28
2022-07-29T02:14:13.875Z,99229.03
2022-07-29T02:14:30.746Z,99236.28
2022-07-29T02:14:46.677Z,99233.50
2022-07-29T02:15:01.832Z,99231.69
2022-07-29T02:15:14.817Z,99230.84
2022-07-29T02:15:31.384Z,99224.56
2022-07-29T02:15:45.206Z,99233.34
2022-07-29T02:15:58.950Z,99231.53
2022-07-29T02:16:12.796Z,99237.69
2022-07-29T02:16:29.776Z,99232.38
2022-07-29T02:16:42.853Z,99226.25
2022-07-29T02:16:59.175Z,99236.69
2022-07-29T02:17:12.132Z,99231.53
2022-07-29T02:17:47.582Z,99230.69
2022-07-29T02:18:09.185Z,99230.69
2022-07-29T02:18:25.101Z,99228.03
2022-07-29T02:18:39.987Z,99229.03
2022-07-29T02:18:54.794Z,99229.84
2022-07-29T02:19:09.596Z,99234.19
2022-07-29T02:19:25.989Z,99225.69
2022-07-29T02:19:39.069Z,99230.97
2022-07-29T02:19:53.492Z,99222.03
2022-07-29T02:20:06.515Z,99230.97
2022-07-29T02:20:19.272Z,99224.00
2022-07-29T02:20:32.033Z,99232.09
2022-07-29T02:20:49.248Z,99230.97
2022-07-29T02:21:02.154Z,99233.75
2022-07-29T02:21:19.093Z,99235.56
2022-07-29T02:21:33.077Z,99232.94
2022-07-29T02:21:46.549Z,99230.28
2022-07-29T02:22:00.696Z,99229.56
2022-07-29T02:22:13.868Z,99232.22
2022-07-29T02:22:27.734Z,99232.22
2022-07-29T02:22:41.351Z,99229.56
2022-07-29T02:22:55.481Z,99240.19
2022-07-29T02:23:10.643Z,99237.66
2022-07-29T02:23:24.099Z,99231.53
2022-07-29T02:23:50.434Z,99226.22
2022-07-29T02:24:05.544Z,99231.53
2022-07-29T02:24:19.839Z,99228.19
2022-07-29T02:24:32.144Z,99231.53
2022-07-29T02:24:45.620Z,99230.69
2022-07-29T02:24:59.599Z,99230.69
2022-07-29T02:25:14.375Z,99233.19
2022-07-29T02:25:37.045Z,99233.47
2022-07-29T02:25:52.622Z,99231.78
2022-07-29T02:26:05.498Z,99226.50
2022-07-29T02:26:20.286Z,99224.13
2022-07-29T02:26:34.574Z,99229.44
2022-07-29T02:26:48.202Z,99232.06
2022-07-29T02:27:02.521Z,99225.22
2022-07-29T02:27:16.101Z,99232.22
2022-07-29T02:27:30.158Z,99228.72
2022-07-29T02:27:44.026Z,99229.56
2022-07-29T02:27:57.288Z,99232.34
2022-07-29T02:28:09.438Z,99232.34
2022-07-29T02:28:24.512Z,99233.31
2022-07-29T02:28:37.192Z,99223.69
2022-07-29T02:28:52.550Z,99224.53
2022-07-29T02:29:05.185Z,99230.94
2022-07-29T02:29:19.735Z,99220.34
2022-07-29T02:29:33.482Z,99227.34
2022-07-29T02:29:47.701Z,99229.28
2022-07-29T02:30:02.815Z,99223.00
2022-07-29T02:30:15.362Z,99230.25
2022-07-29T02:30:29.574Z,99229.28
2022-07-29T02:30:43.854Z,99228.56
2022-07-29T02:31:00.386Z,99232.88
2022-07-29T02:31:14.605Z,99227.59
2022-07-29T02:31:31.090Z,99234.56
2022-07-29T02:31:48.088Z,99230.94
2022-07-29T02:32:01.834Z,99229.28
2022-07-29T02:32:16.960Z,99223.81
2022-07-29T02:32:29.720Z,99230.94
2022-07-29T02:32:43.410Z,99225.38
2022-07-29T02:32:56.303Z,99227.03
2022-07-29T02:33:10.904Z,99234.03
2022-07-29T02:33:25.033Z,99230.69
2022-07-29T02:33:38.491Z,99229.13
2022-07-29T02:33:51.362Z,99229.28
2022-07-29T02:34:06.653Z,99227.88
2022-07-29T02:34:20.370Z,99229.81
2022-07-29T02:34:35.791Z,99230.66
2022-07-29T02:34:49.297Z,99231.50
2022-07-29T02:35:02.569Z,99235.13
2022-07-29T02:35:16.855Z,99228.13
2022-07-29T02:35:34.928Z,99222.28
2022-07-29T02:35:48.588Z,99229.50
2022-07-29T02:36:02.443Z,99225.34
2022-07-29T02:36:16.901Z,99226.16
2022-07-29T02:36:30.753Z,99222.69
2022-07-29T02:36:45.198Z,99231.47
2022-07-29T02:37:03.619Z,99221.16
2022-07-29T02:37:17.749Z,99230.88
2022-07-29T02:37:31.759Z,99229.22
2022-07-29T02:38:06.524Z,99230.88
2022-07-29T02:38:39.367Z,99226.44
2022-07-29T02:38:52.439Z,99226.44
2022-07-29T02:39:05.764Z,99225.59
2022-07-29T02:39:19.080Z,99230.06
2022-07-29T02:39:32.449Z,99226.56
2022-07-29T02:39:45.802Z,99232.84
2022-07-29T02:39:59.860Z,99228.41
2022-07-29T02:40:14.123Z,99230.88
2022-07-29T02:40:26.214Z,99229.22
2022-07-29T02:40:40.584Z,99230.88
2022-07-29T02:40:54.570Z,99230.06
2022-07-29T02:41:12.212Z,99223.94
2022-07-29T02:41:30.518Z,99231.16
2022-07-29T02:41:48.714Z,99229.78
2022-07-29T02:42:07.972Z,99226.38
2022-07-29T02:42:22.009Z,99239.41
2022-07-29T02:42:36.862Z,99235.94
2022-07-29T02:42:49.116Z,99236.78
2022-07-29T02:43:03.717Z,99234.69
2022-07-29T02:43:16.620Z,99230.00
2022-07-29T02:43:30.645Z,99232.47
2022-07-29T02:43:44.385Z,99231.41
2022-07-29T02:44:02.709Z,99233.06
2022-07-29T02:44:20.899Z,99232.75
2022-07-29T02:44:35.270Z,99241.66
2022-07-29T02:44:47.224Z,99238.84
2022-07-29T02:44:59.319Z,99234.91
2022-07-29T02:45:11.814Z,99236.31
2022-07-29T02:45:23.819Z,99237.72
2022-07-29T02:45:35.863Z,99243.56
2022-07-29T02:45:52.494Z,99239.38
2022-07-29T02:46:12.671Z,99234.66
2022-07-29T02:46:47.399Z,99230.19
2022-07-29T02:47:14.382Z,99232.84
2022-07-29T02:47:41.936Z,99236.31
2022-07-29T02:47:57.294Z,99230.19
2022-07-29T02:48:16.111Z,99231.03
2022-07-29T02:48:49.540Z,99237.44
2022-07-29T02:49:16.740Z,99231.72
2022-07-29T02:49:41.999Z,99227.38
2022-07-29T02:50:16.289Z,99235.19
2022-07-29T02:50:34.820Z,99232.53
2022-07-29T02:50:52.721Z,99234.38
2022-07-29T02:51:13.000Z,99233.38
2022-07-29T02:51:50.242Z,99230.47
2022-07-29T02:52:09.913Z,99230.47
2022-07-29T02:52:38.758Z,99230.47
2022-07-29T02:52:56.542Z,99227.97
2022-07-29T02:53:24.494Z,99228.78
2022-07-29T02:53:39.556Z,99223.78
2022-07-29T02:53:55.695Z,99220.16
2022-07-29T02:54:10.074Z,99222.91
2022-07-29T02:54:34.637Z,99227.38
2022-07-29T02:55:07.737Z,99221.97
2022-07-29T02:55:34.401Z,99226.16
2022-07-29T02:56:22.114Z,99222.38
2022-07-29T02:56:40.263Z,99225.19
2022-07-29T02:56:56.386Z,99219.91
2022-07-29T02:57:24.005Z,99223.25
2022-07-29T02:57:54.831Z,99220.59
2022-07-29T02:58:29.378Z,99229.25
2022-07-29T02:58:50.818Z,99222.25
2022-07-29T02:59:06.907Z,99218.66
2022-07-29T02:59:24.198Z,99218.50
2022-07-29T02:59:37.900Z,99214.31
2022-07-29T02:59:53.885Z,99222.13
2022-07-29T03:00:09.599Z,99211.53
2022-07-29T03:00:23.322Z,99212.38
2022-07-29T03:00:38.226Z,99214.06
2022-07-29T03:00:52.565Z,99223.78
2022-07-29T03:01:11.963Z,99216.72
2022-07-29T03:01:26.559Z,99215.72
2022-07-29T03:01:43.901Z,99215.72
2022-07-29T03:01:58.588Z,99218.25
2022-07-29T03:02:12.455Z,99219.06
2022-07-29T03:02:27.618Z,99213.78
2022-07-29T03:02:43.328Z,99217.41
2022-07-29T03:02:59.460Z,99220.06
2022-07-29T03:03:19.015Z,99219.34
2022-07-29T03:03:38.484Z,99215.03
2022-07-29T03:03:54.486Z,99216.00
2022-07-29T03:04:09.032Z,99221.44
2022-07-29T03:04:23.693Z,99211.66
2022-07-29T03:04:38.631Z,99218.50
2022-07-29T03:04:53.016Z,99214.31
2022-07-29T03:05:07.821Z,99211.81
2022-07-29T03:05:23.493Z,99224.19
2022-07-29T03:05:36.176Z,99221.56
2022-07-29T03:05:48.154Z,99219.91
2022-07-29T03:06:03.303Z,99226.84
2022-07-29T03:06:30.945Z,99221.56
2022-07-29T03:06:50.627Z,99216.00